sensor_id;sensor_type;location;lat;lon;timestamp;P1;durP1;ratioP1;P2;durP2;ratioP2
81672;SDS011;71092;41.158;-8.680;2023-08-21T00:01:19;13.02;;;4.15;;
81672;SDS011;71092;41.158;-8.680;2023-08-21T00:03:45;15.63;;;4.00;;
81672;SDS011;71092;41.158;-8.680;2023-08-21T00:06:11;15.80;;;3.90;;
81672;SDS011;71092;41.158;-8.680;2023-08-21T00:08:37;15.93;;;5.00;;
81672;SDS011;71092;41.158;-8.680;2023-08-21T00:11:03;12.80;;;3.72;;
81672;SDS011;71092;41.158;-8.680;2023-08-21T00:13:28;16.33;;;4.30;;
81672;SDS011;71092;41.158;-8.680;2023-08-21T00:15:54;14.55;;;4.22;;
81672;SDS011;71092;41.158;-8.680;2023-08-21T00:18:20;17.38;;;4.95;;
81672;SDS011;71092;41.158;-8.680;2023-08-21T00:20:47;16.23;;;4.13;;
81672;SDS011;71092;41.158;-8.680;2023-08-21T00:23:12;17.25;;;4.40;;
81672;SDS011;71092;41.158;-8.680;2023-08-21T00:25:38;13.95;;;3.97;;
81672;SDS011;71092;41.158;-8.680;2023-08-21T00:28:04;20.10;;;5.18;;
81672;SDS011;71092;41.158;-8.680;2023-08-21T00:30:30;12.45;;;3.97;;
81672;SDS011;71092;41.158;-8.680;2023-08-21T00:32:56;12.85;;;4.32;;
81672;SDS011;71092;41.158;-8.680;2023-08-21T00:35:22;13.85;;;4.10;;
81672;SDS011;71092;41.158;-8.680;2023-08-21T00:37:48;14.20;;;4.00;;
81672;SDS011;71092;41.158;-8.680;2023-08-21T00:40:14;17.25;;;4.30;;
81672;SDS011;71092;41.158;-8.680;2023-08-21T00:42:40;12.63;;;3.97;;
81672;SDS011;71092;41.158;-8.680;2023-08-21T00:45:06;14.30;;;4.85;;
81672;SDS011;71092;41.158;-8.680;2023-08-21T00:47:34;12.95;;;3.88;;
81672;SDS011;71092;41.158;-8.680;2023-08-21T00:50:01;13.05;;;3.75;;
81672;SDS011;71092;41.158;-8.680;2023-08-21T00:52:28;13.07;;;4.15;;
81672;SDS011;71092;41.158;-8.680;2023-08-21T00:54:54;12.57;;;4.03;;
81672;SDS011;71092;41.158;-8.680;2023-08-21T00:57:21;15.20;;;3.97;;
81672;SDS011;71092;41.158;-8.680;2023-08-21T00:59:48;14.65;;;4.15;;
81672;SDS011;71092;41.158;-8.680;2023-08-21T01:02:14;11.27;;;3.75;;
81672;SDS011;71092;41.158;-8.680;2023-08-21T01:04:41;12.27;;;3.92;;
81672;SDS011;71092;41.158;-8.680;2023-08-21T01:07:06;16.85;;;4.97;;
81672;SDS011;71092;41.158;-8.680;2023-08-21T01:15:07;14.07;;;4.00;;
81672;SDS011;71092;41.158;-8.680;2023-08-21T01:17:36;11.07;;;3.47;;
81672;SDS011;71092;41.158;-8.680;2023-08-21T01:20:02;15.35;;;5.30;;
81672;SDS011;71092;41.158;-8.680;2023-08-21T01:22:35;17.50;;;4.22;;
81672;SDS011;71092;41.158;-8.680;2023-08-21T01:25:06;14.52;;;4.05;;
81672;SDS011;71092;41.158;-8.680;2023-08-21T01:27:33;11.82;;;4.35;;
81672;SDS011;71092;41.158;-8.680;2023-08-21T01:30:00;11.48;;;3.90;;
81672;SDS011;71092;41.158;-8.680;2023-08-21T01:32:27;13.30;;;4.25;;
81672;SDS011;71092;41.158;-8.680;2023-08-21T01:34:58;17.58;;;4.47;;
81672;SDS011;71092;41.158;-8.680;2023-08-21T01:37:24;13.68;;;3.70;;
81672;SDS011;71092;41.158;-8.680;2023-08-21T01:39:53;11.57;;;3.75;;
81672;SDS011;71092;41.158;-8.680;2023-08-21T01:42:19;10.25;;;3.72;;
81672;SDS011;71092;41.158;-8.680;2023-08-21T01:44:44;13.98;;;4.13;;
81672;SDS011;71092;41.158;-8.680;2023-08-21T01:47:11;13.43;;;3.50;;
81672;SDS011;71092;41.158;-8.680;2023-08-21T01:49:37;15.27;;;4.57;;
81672;SDS011;71092;41.158;-8.680;2023-08-21T01:52:03;16.80;;;4.30;;
81672;SDS011;71092;41.158;-8.680;2023-08-21T01:54:30;15.23;;;4.20;;
81672;SDS011;71092;41.158;-8.680;2023-08-21T01:56:57;15.60;;;4.65;;
81672;SDS011;71092;41.158;-8.680;2023-08-21T01:59:23;13.77;;;3.88;;
81672;SDS011;71092;41.158;-8.680;2023-08-21T02:01:49;12.30;;;4.65;;
81672;SDS011;71092;41.158;-8.680;2023-08-21T02:04:15;11.63;;;3.83;;
81672;SDS011;71092;41.158;-8.680;2023-08-21T02:06:41;14.13;;;4.03;;
81672;SDS011;71092;41.158;-8.680;2023-08-21T02:09:09;14.68;;;4.03;;
81672;SDS011;71092;41.158;-8.680;2023-08-21T02:11:35;16.58;;;3.78;;
81672;SDS011;71092;41.158;-8.680;2023-08-21T02:14:01;16.95;;;4.63;;
81672;SDS011;71092;41.158;-8.680;2023-08-21T02:16:28;12.82;;;4.00;;
81672;SDS011;71092;41.158;-8.680;2023-08-21T02:18:54;12.63;;;3.72;;
81672;SDS011;71092;41.158;-8.680;2023-08-21T02:21:20;15.80;;;4.30;;
81672;SDS011;71092;41.158;-8.680;2023-08-21T02:23:46;17.05;;;4.22;;
81672;SDS011;71092;41.158;-8.680;2023-08-21T02:26:12;17.85;;;4.50;;
81672;SDS011;71092;41.158;-8.680;2023-08-21T02:28:39;16.90;;;5.05;;
81672;SDS011;71092;41.158;-8.680;2023-08-21T02:31:05;16.50;;;4.55;;
81672;SDS011;71092;41.158;-8.680;2023-08-21T02:33:33;31.67;;;14.98;;
81672;SDS011;71092;41.158;-8.680;2023-08-21T02:35:58;18.15;;;7.05;;
81672;SDS011;71092;41.158;-8.680;2023-08-21T02:38:29;19.35;;;6.78;;
81672;SDS011;71092;41.158;-8.680;2023-08-21T02:40:56;18.65;;;6.35;;
81672;SDS011;71092;41.158;-8.680;2023-08-21T02:43:21;21.60;;;5.93;;
81672;SDS011;71092;41.158;-8.680;2023-08-21T02:45:47;19.77;;;6.40;;
81672;SDS011;71092;41.158;-8.680;2023-08-21T02:48:13;15.30;;;5.22;;
81672;SDS011;71092;41.158;-8.680;2023-08-21T02:50:39;16.30;;;5.07;;
81672;SDS011;71092;41.158;-8.680;2023-08-21T02:53:06;19.30;;;4.53;;
81672;SDS011;71092;41.158;-8.680;2023-08-21T02:55:33;12.90;;;4.35;;
81672;SDS011;71092;41.158;-8.680;2023-08-21T02:57:59;20.08;;;5.15;;
81672;SDS011;71092;41.158;-8.680;2023-08-21T03:00:24;19.08;;;4.85;;
81672;SDS011;71092;41.158;-8.680;2023-08-21T03:02:50;14.27;;;4.70;;
81672;SDS011;71092;41.158;-8.680;2023-08-21T03:05:16;21.88;;;5.85;;
81672;SDS011;71092;41.158;-8.680;2023-08-21T03:07:42;18.00;;;5.13;;
81672;SDS011;71092;41.158;-8.680;2023-08-21T03:10:08;12.82;;;4.30;;
81672;SDS011;71092;41.158;-8.680;2023-08-21T03:12:34;13.32;;;4.55;;
81672;SDS011;71092;41.158;-8.680;2023-08-21T03:15:00;16.83;;;5.07;;
81672;SDS011;71092;41.158;-8.680;2023-08-21T03:17:26;13.65;;;6.28;;
81672;SDS011;71092;41.158;-8.680;2023-08-21T03:19:52;21.35;;;5.30;;
81672;SDS011;71092;41.158;-8.680;2023-08-21T03:22:18;15.10;;;4.30;;
81672;SDS011;71092;41.158;-8.680;2023-08-21T03:24:44;16.23;;;4.45;;
81672;SDS011;71092;41.158;-8.680;2023-08-21T03:27:09;19.70;;;5.15;;
81672;SDS011;71092;41.158;-8.680;2023-08-21T03:29:35;21.27;;;5.85;;
81672;SDS011;71092;41.158;-8.680;2023-08-21T03:32:01;18.48;;;6.00;;
81672;SDS011;71092;41.158;-8.680;2023-08-21T03:34:27;16.48;;;4.93;;
81672;SDS011;71092;41.158;-8.680;2023-08-21T03:36:58;19.67;;;5.57;;
81672;SDS011;71092;41.158;-8.680;2023-08-21T03:39:25;17.00;;;5.18;;
81672;SDS011;71092;41.158;-8.680;2023-08-21T03:41:51;12.32;;;4.28;;
81672;SDS011;71092;41.158;-8.680;2023-08-21T03:44:17;17.77;;;5.07;;
81672;SDS011;71092;41.158;-8.680;2023-08-21T03:46:43;18.23;;;4.95;;
81672;SDS011;71092;41.158;-8.680;2023-08-21T03:49:09;18.25;;;5.28;;
81672;SDS011;71092;41.158;-8.680;2023-08-21T03:51:35;16.08;;;6.35;;
81672;SDS011;71092;41.158;-8.680;2023-08-21T03:54:01;16.45;;;4.82;;
81672;SDS011;71092;41.158;-8.680;2023-08-21T03:56:28;17.25;;;5.18;;
81672;SDS011;71092;41.158;-8.680;2023-08-21T03:58:53;14.10;;;5.03;;
81672;SDS011;71092;41.158;-8.680;2023-08-21T04:01:19;22.35;;;5.75;;
81672;SDS011;71092;41.158;-8.680;2023-08-21T04:03:45;17.00;;;5.05;;
81672;SDS011;71092;41.158;-8.680;2023-08-21T04:06:11;18.50;;;6.03;;
81672;SDS011;71092;41.158;-8.680;2023-08-21T04:08:37;15.50;;;4.70;;
81672;SDS011;71092;41.158;-8.680;2023-08-21T04:11:04;18.70;;;5.72;;
81672;SDS011;71092;41.158;-8.680;2023-08-21T04:13:30;18.35;;;5.40;;
81672;SDS011;71092;41.158;-8.680;2023-08-21T04:15:55;18.58;;;5.95;;
81672;SDS011;71092;41.158;-8.680;2023-08-21T04:18:22;23.17;;;5.90;;
81672;SDS011;71092;41.158;-8.680;2023-08-21T04:20:48;20.63;;;5.57;;
81672;SDS011;71092;41.158;-8.680;2023-08-21T04:23:14;14.90;;;4.65;;
81672;SDS011;71092;41.158;-8.680;2023-08-21T04:25:40;18.75;;;5.53;;
81672;SDS011;71092;41.158;-8.680;2023-08-21T04:28:06;18.15;;;5.65;;
81672;SDS011;71092;41.158;-8.680;2023-08-21T04:30:35;19.77;;;5.25;;
81672;SDS011;71092;41.158;-8.680;2023-08-21T04:33:01;17.67;;;5.55;;
81672;SDS011;71092;41.158;-8.680;2023-08-21T04:35:27;18.45;;;5.70;;
81672;SDS011;71092;41.158;-8.680;2023-08-21T04:37:54;18.40;;;5.43;;
81672;SDS011;71092;41.158;-8.680;2023-08-21T04:40:21;15.68;;;4.40;;
81672;SDS011;71092;41.158;-8.680;2023-08-21T04:42:49;18.00;;;5.22;;
81672;SDS011;71092;41.158;-8.680;2023-08-21T04:45:16;18.38;;;6.03;;
81672;SDS011;71092;41.158;-8.680;2023-08-21T04:47:43;19.73;;;5.88;;
81672;SDS011;71092;41.158;-8.680;2023-08-21T04:50:09;15.65;;;4.53;;
81672;SDS011;71092;41.158;-8.680;2023-08-21T04:52:35;17.80;;;6.13;;
81672;SDS011;71092;41.158;-8.680;2023-08-21T04:55:01;21.20;;;5.82;;
81672;SDS011;71092;41.158;-8.680;2023-08-21T04:57:29;16.88;;;5.82;;
81672;SDS011;71092;41.158;-8.680;2023-08-21T04:59:56;19.38;;;5.60;;
81672;SDS011;71092;41.158;-8.680;2023-08-21T05:02:21;17.05;;;5.53;;
81672;SDS011;71092;41.158;-8.680;2023-08-21T05:04:49;15.27;;;5.05;;
81672;SDS011;71092;41.158;-8.680;2023-08-21T05:07:15;18.05;;;5.65;;
81672;SDS011;71092;41.158;-8.680;2023-08-21T05:09:41;20.63;;;6.25;;
81672;SDS011;71092;41.158;-8.680;2023-08-21T05:12:08;16.80;;;5.85;;
81672;SDS011;71092;41.158;-8.680;2023-08-21T05:14:34;16.02;;;5.60;;
81672;SDS011;71092;41.158;-8.680;2023-08-21T05:17:00;13.35;;;4.65;;
81672;SDS011;71092;41.158;-8.680;2023-08-21T05:19:26;18.95;;;6.00;;
81672;SDS011;71092;41.158;-8.680;2023-08-21T05:21:52;17.42;;;5.90;;
81672;SDS011;71092;41.158;-8.680;2023-08-21T05:24:18;17.15;;;6.35;;
81672;SDS011;71092;41.158;-8.680;2023-08-21T05:26:49;19.42;;;5.95;;
81672;SDS011;71092;41.158;-8.680;2023-08-21T05:29:15;16.58;;;6.00;;
81672;SDS011;71092;41.158;-8.680;2023-08-21T05:31:41;17.35;;;4.80;;
81672;SDS011;71092;41.158;-8.680;2023-08-21T05:34:08;17.27;;;5.22;;
81672;SDS011;71092;41.158;-8.680;2023-08-21T05:36:34;18.73;;;5.22;;
81672;SDS011;71092;41.158;-8.680;2023-08-21T05:39:01;20.65;;;5.85;;
81672;SDS011;71092;41.158;-8.680;2023-08-21T05:41:29;15.40;;;4.72;;
81672;SDS011;71092;41.158;-8.680;2023-08-21T05:43:55;17.08;;;5.80;;
81672;SDS011;71092;41.158;-8.680;2023-08-21T05:46:23;13.77;;;4.63;;
81672;SDS011;71092;41.158;-8.680;2023-08-21T05:48:48;18.92;;;6.03;;
81672;SDS011;71092;41.158;-8.680;2023-08-21T05:51:14;21.48;;;5.65;;
81672;SDS011;71092;41.158;-8.680;2023-08-21T05:53:40;21.25;;;5.45;;
81672;SDS011;71092;41.158;-8.680;2023-08-21T05:56:06;15.38;;;5.57;;
81672;SDS011;71092;41.158;-8.680;2023-08-21T05:58:33;21.45;;;5.30;;
81672;SDS011;71092;41.158;-8.680;2023-08-21T06:00:58;20.10;;;6.40;;
81672;SDS011;71092;41.158;-8.680;2023-08-21T06:03:24;15.02;;;5.07;;
81672;SDS011;71092;41.158;-8.680;2023-08-21T06:06:05;18.98;;;5.60;;
81672;SDS011;71092;41.158;-8.680;2023-08-21T06:08:31;17.98;;;6.43;;
81672;SDS011;71092;41.158;-8.680;2023-08-21T06:10:57;18.23;;;6.05;;
81672;SDS011;71092;41.158;-8.680;2023-08-21T06:13:23;17.13;;;5.25;;
81672;SDS011;71092;41.158;-8.680;2023-08-21T06:15:53;15.18;;;4.93;;
81672;SDS011;71092;41.158;-8.680;2023-08-21T06:18:21;18.95;;;4.93;;
81672;SDS011;71092;41.158;-8.680;2023-08-21T06:20:48;19.20;;;5.53;;
81672;SDS011;71092;41.158;-8.680;2023-08-21T06:23:15;19.52;;;5.00;;
81672;SDS011;71092;41.158;-8.680;2023-08-21T06:25:41;20.70;;;6.03;;
81672;SDS011;71092;41.158;-8.680;2023-08-21T06:28:10;19.75;;;5.22;;
81672;SDS011;71092;41.158;-8.680;2023-08-21T06:30:36;18.27;;;6.05;;
81672;SDS011;71092;41.158;-8.680;2023-08-21T06:33:02;20.45;;;5.97;;
81672;SDS011;71092;41.158;-8.680;2023-08-21T06:35:28;20.33;;;6.65;;
81672;SDS011;71092;41.158;-8.680;2023-08-21T06:37:54;19.48;;;5.30;;
81672;SDS011;71092;41.158;-8.680;2023-08-21T06:40:20;18.65;;;5.72;;
81672;SDS011;71092;41.158;-8.680;2023-08-21T06:42:46;16.55;;;6.13;;
81672;SDS011;71092;41.158;-8.680;2023-08-21T06:45:16;16.85;;;5.15;;
81672;SDS011;71092;41.158;-8.680;2023-08-21T06:47:43;15.13;;;5.45;;
81672;SDS011;71092;41.158;-8.680;2023-08-21T06:50:09;19.77;;;6.03;;
81672;SDS011;71092;41.158;-8.680;2023-08-21T06:52:35;19.27;;;5.68;;
81672;SDS011;71092;41.158;-8.680;2023-08-21T06:55:01;17.27;;;6.30;;
81672;SDS011;71092;41.158;-8.680;2023-08-21T06:57:27;17.67;;;6.00;;
81672;SDS011;71092;41.158;-8.680;2023-08-21T06:59:53;17.80;;;5.63;;
81672;SDS011;71092;41.158;-8.680;2023-08-21T07:02:19;16.55;;;5.50;;
81672;SDS011;71092;41.158;-8.680;2023-08-21T07:04:45;16.20;;;5.00;;
81672;SDS011;71092;41.158;-8.680;2023-08-21T07:07:11;21.67;;;5.43;;
81672;SDS011;71092;41.158;-8.680;2023-08-21T07:09:37;17.20;;;4.97;;
81672;SDS011;71092;41.158;-8.680;2023-08-21T07:12:03;19.40;;;4.95;;
81672;SDS011;71092;41.158;-8.680;2023-08-21T07:14:29;19.50;;;5.95;;
81672;SDS011;71092;41.158;-8.680;2023-08-21T07:16:55;19.80;;;5.85;;
81672;SDS011;71092;41.158;-8.680;2023-08-21T07:19:21;21.23;;;5.90;;
81672;SDS011;71092;41.158;-8.680;2023-08-21T07:21:46;18.67;;;5.47;;
81672;SDS011;71092;41.158;-8.680;2023-08-21T07:24:12;17.05;;;5.75;;
81672;SDS011;71092;41.158;-8.680;2023-08-21T07:26:38;15.77;;;5.15;;
81672;SDS011;71092;41.158;-8.680;2023-08-21T07:29:04;19.60;;;5.88;;
81672;SDS011;71092;41.158;-8.680;2023-08-21T07:31:30;16.38;;;5.95;;
81672;SDS011;71092;41.158;-8.680;2023-08-21T07:33:56;19.85;;;5.00;;
81672;SDS011;71092;41.158;-8.680;2023-08-21T07:36:22;19.15;;;5.35;;
81672;SDS011;71092;41.158;-8.680;2023-08-21T07:38:49;21.65;;;4.80;;
81672;SDS011;71092;41.158;-8.680;2023-08-21T07:41:15;16.17;;;5.28;;
81672;SDS011;71092;41.158;-8.680;2023-08-21T07:43:41;25.38;;;7.65;;
81672;SDS011;71092;41.158;-8.680;2023-08-21T07:46:09;34.90;;;7.85;;
81672;SDS011;71092;41.158;-8.680;2023-08-21T07:48:38;22.63;;;6.53;;
81672;SDS011;71092;41.158;-8.680;2023-08-21T07:51:04;22.25;;;7.10;;
81672;SDS011;71092;41.158;-8.680;2023-08-21T07:53:30;30.08;;;6.60;;
81672;SDS011;71092;41.158;-8.680;2023-08-21T07:55:57;24.88;;;6.03;;
81672;SDS011;71092;41.158;-8.680;2023-08-21T07:58:23;29.25;;;7.10;;
81672;SDS011;71092;41.158;-8.680;2023-08-21T08:00:50;22.02;;;6.68;;
81672;SDS011;71092;41.158;-8.680;2023-08-21T08:03:16;20.98;;;5.70;;
81672;SDS011;71092;41.158;-8.680;2023-08-21T08:05:43;19.13;;;6.10;;
81672;SDS011;71092;41.158;-8.680;2023-08-21T08:08:08;19.70;;;7.05;;
81672;SDS011;71092;41.158;-8.680;2023-08-21T08:10:40;17.30;;;5.28;;
81672;SDS011;71092;41.158;-8.680;2023-08-21T08:13:07;19.58;;;6.30;;
81672;SDS011;71092;41.158;-8.680;2023-08-21T08:15:33;19.60;;;6.13;;
81672;SDS011;71092;41.158;-8.680;2023-08-21T08:18:03;17.98;;;6.25;;
81672;SDS011;71092;41.158;-8.680;2023-08-21T08:20:29;23.67;;;7.43;;
81672;SDS011;71092;41.158;-8.680;2023-08-21T08:22:55;24.23;;;6.60;;
81672;SDS011;71092;41.158;-8.680;2023-08-21T08:25:22;16.52;;;6.18;;
81672;SDS011;71092;41.158;-8.680;2023-08-21T08:27:48;17.15;;;6.00;;
81672;SDS011;71092;41.158;-8.680;2023-08-21T08:30:14;20.65;;;7.00;;
81672;SDS011;71092;41.158;-8.680;2023-08-21T08:32:42;17.30;;;6.70;;
81672;SDS011;71092;41.158;-8.680;2023-08-21T08:35:13;20.75;;;6.63;;
81672;SDS011;71092;41.158;-8.680;2023-08-21T08:37:42;20.13;;;6.03;;
81672;SDS011;71092;41.158;-8.680;2023-08-21T08:40:10;28.75;;;8.20;;
81672;SDS011;71092;41.158;-8.680;2023-08-21T08:42:36;23.05;;;8.15;;
81672;SDS011;71092;41.158;-8.680;2023-08-21T08:45:02;23.48;;;7.63;;
81672;SDS011;71092;41.158;-8.680;2023-08-21T08:47:33;31.08;;;8.40;;
81672;SDS011;71092;41.158;-8.680;2023-08-21T08:50:03;19.00;;;5.60;;
81672;SDS011;71092;41.158;-8.680;2023-08-21T08:52:31;35.47;;;9.43;;
81672;SDS011;71092;41.158;-8.680;2023-08-21T08:55:00;26.58;;;9.27;;
81672;SDS011;71092;41.158;-8.680;2023-08-21T08:57:28;22.35;;;6.43;;
81672;SDS011;71092;41.158;-8.680;2023-08-21T08:59:53;29.92;;;10.57;;
81672;SDS011;71092;41.158;-8.680;2023-08-21T09:02:20;34.70;;;9.05;;
81672;SDS011;71092;41.158;-8.680;2023-08-21T09:04:45;18.08;;;6.10;;
81672;SDS011;71092;41.158;-8.680;2023-08-21T09:07:12;35.85;;;8.95;;
81672;SDS011;71092;41.158;-8.680;2023-08-21T09:09:41;32.15;;;8.95;;
81672;SDS011;71092;41.158;-8.680;2023-08-21T09:12:12;19.77;;;7.05;;
81672;SDS011;71092;41.158;-8.680;2023-08-21T09:14:39;33.78;;;9.27;;
81672;SDS011;71092;41.158;-8.680;2023-08-21T09:17:06;25.45;;;8.00;;
81672;SDS011;71092;41.158;-8.680;2023-08-21T09:19:32;29.35;;;8.07;;
81672;SDS011;71092;41.158;-8.680;2023-08-21T09:21:58;29.08;;;7.28;;
81672;SDS011;71092;41.158;-8.680;2023-08-21T09:24:24;19.40;;;6.35;;
81672;SDS011;71092;41.158;-8.680;2023-08-21T09:26:50;20.90;;;6.10;;
81672;SDS011;71092;41.158;-8.680;2023-08-21T09:29:16;22.30;;;6.97;;
81672;SDS011;71092;41.158;-8.680;2023-08-21T09:31:42;24.95;;;7.43;;
81672;SDS011;71092;41.158;-8.680;2023-08-21T09:34:11;24.48;;;6.78;;
81672;SDS011;71092;41.158;-8.680;2023-08-21T09:36:37;33.35;;;8.65;;
81672;SDS011;71092;41.158;-8.680;2023-08-21T09:39:04;26.85;;;7.13;;
81672;SDS011;71092;41.158;-8.680;2023-08-21T09:41:32;18.65;;;6.75;;
81672;SDS011;71092;41.158;-8.680;2023-08-21T09:44:01;23.15;;;6.28;;
81672;SDS011;71092;41.158;-8.680;2023-08-21T09:46:29;23.65;;;6.28;;
81672;SDS011;71092;41.158;-8.680;2023-08-21T09:48:55;19.02;;;5.90;;
81672;SDS011;71092;41.158;-8.680;2023-08-21T09:51:21;27.13;;;7.53;;
81672;SDS011;71092;41.158;-8.680;2023-08-21T09:54:05;25.30;;;7.25;;
81672;SDS011;71092;41.158;-8.680;2023-08-21T09:56:32;21.42;;;6.82;;
81672;SDS011;71092;41.158;-8.680;2023-08-21T09:58:59;24.23;;;6.90;;
81672;SDS011;71092;41.158;-8.680;2023-08-21T10:01:25;17.00;;;6.53;;
81672;SDS011;71092;41.158;-8.680;2023-08-21T10:03:51;19.27;;;6.50;;
81672;SDS011;71092;41.158;-8.680;2023-08-21T10:06:19;16.60;;;6.32;;
81672;SDS011;71092;41.158;-8.680;2023-08-21T10:08:46;16.08;;;6.25;;
81672;SDS011;71092;41.158;-8.680;2023-08-21T10:11:14;17.35;;;6.47;;
81672;SDS011;71092;41.158;-8.680;2023-08-21T10:13:45;28.50;;;8.20;;
81672;SDS011;71092;41.158;-8.680;2023-08-21T10:16:11;28.60;;;7.38;;
81672;SDS011;71092;41.158;-8.680;2023-08-21T10:18:37;20.33;;;6.70;;
81672;SDS011;71092;41.158;-8.680;2023-08-21T10:21:10;23.02;;;7.55;;
81672;SDS011;71092;41.158;-8.680;2023-08-21T10:23:36;23.05;;;7.50;;
81672;SDS011;71092;41.158;-8.680;2023-08-21T10:26:05;26.35;;;7.18;;
81672;SDS011;71092;41.158;-8.680;2023-08-21T10:34:10;28.95;;;7.38;;
81672;SDS011;71092;41.158;-8.680;2023-08-21T10:39:20;23.20;;;9.30;;
81672;SDS011;71092;41.158;-8.680;2023-08-21T10:47:33;28.20;;;7.43;;
81672;SDS011;71092;41.158;-8.680;2023-08-21T10:52:30;24.13;;;7.30;;
81672;SDS011;71092;41.158;-8.680;2023-08-21T10:54:58;22.73;;;7.43;;
81672;SDS011;71092;41.158;-8.680;2023-08-21T10:57:26;20.92;;;7.43;;
81672;SDS011;71092;41.158;-8.680;2023-08-21T10:59:57;17.20;;;6.68;;
81672;SDS011;71092;41.158;-8.680;2023-08-21T11:02:25;20.27;;;7.53;;
81672;SDS011;71092;41.158;-8.680;2023-08-21T11:04:55;25.63;;;8.43;;
81672;SDS011;71092;41.158;-8.680;2023-08-21T11:07:22;24.20;;;8.30;;
81672;SDS011;71092;41.158;-8.680;2023-08-21T11:09:48;26.95;;;7.63;;
81672;SDS011;71092;41.158;-8.680;2023-08-21T11:12:16;23.42;;;8.13;;
81672;SDS011;71092;41.158;-8.680;2023-08-21T11:14:47;26.13;;;8.75;;
81672;SDS011;71092;41.158;-8.680;2023-08-21T11:17:13;27.45;;;8.55;;
81672;SDS011;71092;41.158;-8.680;2023-08-21T11:19:40;24.83;;;7.53;;
81672;SDS011;71092;41.158;-8.680;2023-08-21T11:22:08;26.92;;;8.70;;
81672;SDS011;71092;41.158;-8.680;2023-08-21T11:27:06;24.05;;;7.43;;
81672;SDS011;71092;41.158;-8.680;2023-08-21T11:29:36;20.95;;;7.28;;
81672;SDS011;71092;41.158;-8.680;2023-08-21T11:32:07;26.73;;;8.68;;
81672;SDS011;71092;41.158;-8.680;2023-08-21T11:34:34;25.23;;;7.97;;
81672;SDS011;71092;41.158;-8.680;2023-08-21T11:37:01;24.30;;;8.18;;
81672;SDS011;71092;41.158;-8.680;2023-08-21T11:39:27;20.63;;;7.93;;
81672;SDS011;71092;41.158;-8.680;2023-08-21T11:42:08;22.52;;;7.70;;
81672;SDS011;71092;41.158;-8.680;2023-08-21T11:44:39;23.30;;;9.02;;
81672;SDS011;71092;41.158;-8.680;2023-08-21T11:47:19;24.08;;;7.43;;
81672;SDS011;71092;41.158;-8.680;2023-08-21T11:49:47;21.70;;;7.55;;
81672;SDS011;71092;41.158;-8.680;2023-08-21T11:52:18;23.63;;;8.50;;
81672;SDS011;71092;41.158;-8.680;2023-08-21T11:54:47;20.33;;;7.57;;
81672;SDS011;71092;41.158;-8.680;2023-08-21T11:57:16;20.67;;;7.60;;
81672;SDS011;71092;41.158;-8.680;2023-08-21T11:59:42;26.52;;;7.97;;
81672;SDS011;71092;41.158;-8.680;2023-08-21T12:02:19;19.83;;;8.30;;
81672;SDS011;71092;41.158;-8.680;2023-08-21T12:04:53;24.58;;;8.73;;
81672;SDS011;71092;41.158;-8.680;2023-08-21T12:07:33;25.90;;;9.63;;
81672;SDS011;71092;41.158;-8.680;2023-08-21T12:09:59;20.67;;;8.70;;
81672;SDS011;71092;41.158;-8.680;2023-08-21T12:12:25;19.60;;;7.57;;
81672;SDS011;71092;41.158;-8.680;2023-08-21T12:14:51;24.38;;;8.70;;
81672;SDS011;71092;41.158;-8.680;2023-08-21T12:17:17;18.90;;;8.25;;
81672;SDS011;71092;41.158;-8.680;2023-08-21T12:19:43;17.98;;;8.20;;
81672;SDS011;71092;41.158;-8.680;2023-08-21T12:22:09;22.70;;;8.30;;
81672;SDS011;71092;41.158;-8.680;2023-08-21T12:24:35;20.15;;;8.90;;
81672;SDS011;71092;41.158;-8.680;2023-08-21T12:27:02;17.55;;;8.60;;
81672;SDS011;71092;41.158;-8.680;2023-08-21T12:29:29;20.20;;;8.68;;
81672;SDS011;71092;41.158;-8.680;2023-08-21T12:31:55;26.13;;;8.27;;
81672;SDS011;71092;41.158;-8.680;2023-08-21T12:34:21;19.63;;;7.65;;
81672;SDS011;71092;41.158;-8.680;2023-08-21T12:36:49;15.95;;;8.38;;
81672;SDS011;71092;41.158;-8.680;2023-08-21T12:39:16;16.88;;;7.72;;
81672;SDS011;71092;41.158;-8.680;2023-08-21T12:41:43;19.48;;;7.07;;
81672;SDS011;71092;41.158;-8.680;2023-08-21T12:44:09;19.10;;;6.97;;
81672;SDS011;71092;41.158;-8.680;2023-08-21T12:46:35;19.77;;;7.22;;
81672;SDS011;71092;41.158;-8.680;2023-08-21T12:49:01;17.75;;;7.45;;
81672;SDS011;71092;41.158;-8.680;2023-08-21T12:51:28;19.02;;;7.03;;
81672;SDS011;71092;41.158;-8.680;2023-08-21T12:53:54;16.00;;;5.93;;
81672;SDS011;71092;41.158;-8.680;2023-08-21T12:56:20;14.88;;;6.82;;
81672;SDS011;71092;41.158;-8.680;2023-08-21T12:58:46;14.82;;;5.75;;
81672;SDS011;71092;41.158;-8.680;2023-08-21T13:01:12;19.27;;;6.88;;
81672;SDS011;71092;41.158;-8.680;2023-08-21T13:03:38;17.02;;;6.13;;
81672;SDS011;71092;41.158;-8.680;2023-08-21T13:06:04;21.65;;;6.40;;
81672;SDS011;71092;41.158;-8.680;2023-08-21T13:08:31;15.13;;;5.65;;
81672;SDS011;71092;41.158;-8.680;2023-08-21T13:10:57;19.95;;;7.03;;
81672;SDS011;71092;41.158;-8.680;2023-08-21T13:13:23;14.98;;;4.82;;
81672;SDS011;71092;41.158;-8.680;2023-08-21T13:15:49;20.25;;;5.70;;
81672;SDS011;71092;41.158;-8.680;2023-08-21T13:18:16;19.80;;;5.63;;
81672;SDS011;71092;41.158;-8.680;2023-08-21T13:20:42;16.45;;;5.97;;
81672;SDS011;71092;41.158;-8.680;2023-08-21T13:23:08;14.73;;;5.40;;
81672;SDS011;71092;41.158;-8.680;2023-08-21T13:25:34;17.65;;;5.90;;
81672;SDS011;71092;41.158;-8.680;2023-08-21T13:28:00;12.25;;;5.75;;
81672;SDS011;71092;41.158;-8.680;2023-08-21T13:30:29;11.23;;;5.22;;
81672;SDS011;71092;41.158;-8.680;2023-08-21T13:32:56;16.20;;;4.97;;
81672;SDS011;71092;41.158;-8.680;2023-08-21T13:35:22;18.55;;;5.25;;
81672;SDS011;71092;41.158;-8.680;2023-08-21T13:37:48;15.02;;;5.13;;
81672;SDS011;71092;41.158;-8.680;2023-08-21T13:40:14;17.00;;;6.15;;
81672;SDS011;71092;41.158;-8.680;2023-08-21T13:42:42;15.70;;;5.18;;
81672;SDS011;71092;41.158;-8.680;2023-08-21T13:45:16;16.55;;;4.90;;
81672;SDS011;71092;41.158;-8.680;2023-08-21T13:47:44;18.85;;;5.25;;
81672;SDS011;71092;41.158;-8.680;2023-08-21T13:50:14;14.00;;;5.82;;
81672;SDS011;71092;41.158;-8.680;2023-08-21T13:52:41;15.27;;;6.10;;
81672;SDS011;71092;41.158;-8.680;2023-08-21T13:55:08;13.52;;;5.43;;
81672;SDS011;71092;41.158;-8.680;2023-08-21T13:57:35;12.30;;;5.35;;
81672;SDS011;71092;41.158;-8.680;2023-08-21T14:00:03;13.63;;;5.05;;
81672;SDS011;71092;41.158;-8.680;2023-08-21T14:02:33;12.25;;;4.70;;
81672;SDS011;71092;41.158;-8.680;2023-08-21T14:05:00;16.20;;;5.13;;
81672;SDS011;71092;41.158;-8.680;2023-08-21T14:07:27;13.85;;;4.95;;
81672;SDS011;71092;41.158;-8.680;2023-08-21T14:10:12;15.52;;;5.60;;
81672;SDS011;71092;41.158;-8.680;2023-08-21T14:12:41;15.77;;;5.07;;
81672;SDS011;71092;41.158;-8.680;2023-08-21T14:15:07;11.05;;;4.97;;
81672;SDS011;71092;41.158;-8.680;2023-08-21T14:17:33;13.25;;;4.95;;
81672;SDS011;71092;41.158;-8.680;2023-08-21T14:19:59;14.10;;;5.38;;
81672;SDS011;71092;41.158;-8.680;2023-08-21T14:22:25;14.60;;;5.18;;
81672;SDS011;71092;41.158;-8.680;2023-08-21T14:24:51;13.52;;;5.65;;
81672;SDS011;71092;41.158;-8.680;2023-08-21T14:27:17;12.77;;;6.45;;
81672;SDS011;71092;41.158;-8.680;2023-08-21T14:29:43;13.52;;;6.25;;
81672;SDS011;71092;41.158;-8.680;2023-08-21T14:32:09;14.63;;;4.85;;
81672;SDS011;71092;41.158;-8.680;2023-08-21T14:34:36;17.20;;;6.15;;
81672;SDS011;71092;41.158;-8.680;2023-08-21T14:37:01;18.65;;;6.25;;
81672;SDS011;71092;41.158;-8.680;2023-08-21T14:39:29;17.65;;;5.60;;
81672;SDS011;71092;41.158;-8.680;2023-08-21T14:41:55;23.63;;;6.15;;
81672;SDS011;71092;41.158;-8.680;2023-08-21T14:44:41;25.58;;;6.32;;